Time;durP1;ratioP1;P1;durP2;ratioP2;P2;SDS_P1;SDS_P2;PMS_P1;PMS_P2;Temp;Humidity;BMP_temperature;BMP_pressure;BME280_temperature;BME280_humidity;BME280_pressure;Samples;Min_cycle;Max_cycle;Signal;HPM_P1;HPM_P2
2023/06/24 00:01:38;;;;;;;14.02;12.75;;;14.50;81.70;;;;;;5071952;28;20032;-73
2023/06/24 00:04:04;;;;;;;14.07;12.98;;;14.50;82.10;;;;;;5075549;28;20056;-73
2023/06/24 00:06:29;;;;;;;13.60;12.63;;;14.60;81.00;;;;;;5074069;28;20134;-73
2023/06/24 00:09:00;;;;;;;14.10;13.07;;;14.70;82.20;;;;;;5075150;28;20486;-73
2023/06/24 00:11:29;;;;;;;14.00;13.10;;;14.80;82.50;;;;;;5086135;28;20075;-73
2023/06/24 00:13:55;;;;;;;13.45;12.48;;;14.90;79.30;;;;;;5077631;28;20036;-73
2023/06/24 00:16:27;;;;;;;13.50;12.50;;;15.00;79.00;;;;;;5072515;28;20032;-73
2023/06/24 00:18:55;;;;;;;14.10;13.10;;;15.10;78.60;;;;;;5073571;28;20049;-73
2023/06/24 00:21:22;;;;;;;13.57;12.57;;;15.10;79.90;;;;;;5089379;28;20090;-73
2023/06/24 00:23:49;;;;;;;13.80;12.80;;;14.90;80.60;;;;;;5078178;28;20072;-73
2023/06/24 00:26:16;;;;;;;13.18;12.15;;;15.00;79.60;;;;;;5075008;28;20041;-73
2023/06/24 00:28:42;;;;;;;13.38;12.32;;;15.10;80.60;;;;;;5088224;28;20557;-73
2023/06/24 00:31:07;;;;;;;13.35;12.45;;;15.10;79.70;;;;;;5072122;28;20044;-72
2023/06/24 00:33:35;;;;;;;12.10;11.27;;;15.20;79.50;;;;;;5072075;28;20544;-73
2023/06/24 00:36:02;;;;;;;13.18;12.18;;;15.40;76.90;;;;;;5073782;28;20029;-72
2023/06/24 00:38:32;;;;;;;13.82;12.73;;;15.30;79.80;;;;;;5074921;28;20384;-72
2023/06/24 00:41:00;;;;;;;13.85;12.73;;;15.30;81.80;;;;;;5076411;28;20024;-73
2023/06/24 00:43:26;;;;;;;13.02;12.13;;;15.20;83.30;;;;;;5070817;28;20052;-73
2023/06/24 00:45:53;;;;;;;12.98;12.05;;;15.20;83.80;;;;;;5071503;28;20036;-73
2023/06/24 00:48:20;;;;;;;13.15;12.18;;;15.10;82.70;;;;;;5070157;28;20406;-73
2023/06/24 00:50:47;;;;;;;12.45;11.65;;;15.10;82.30;;;;;;5073868;28;20036;-73
2023/06/24 00:53:12;;;;;;;12.70;11.82;;;15.00;84.20;;;;;;5073983;28;20052;-72
2023/06/24 00:55:38;;;;;;;12.80;11.70;;;15.00;84.40;;;;;;5073849;28;20041;-72
2023/06/24 00:58:04;;;;;;;12.52;11.63;;;15.00;84.50;;;;;;5075103;28;20754;-72
2023/06/24 01:00:57;;;;;;;13.27;12.32;;;15.10;82.50;;;;;;5074030;28;20036;-72
2023/06/24 01:03:25;;;;;;;13.52;12.52;;;15.10;83.10;;;;;;5075202;28;20762;-73
2023/06/24 01:05:50;;;;;;;13.50;12.50;;;15.00;83.80;;;;;;5076978;28;20025;-73
2023/06/24 01:08:16;;;;;;;13.23;12.23;;;14.70;88.10;;;;;;5074319;28;20029;-73
2023/06/24 01:10:42;;;;;;;12.68;11.75;;;14.80;86.60;;;;;;5075203;28;20086;-73
2023/06/24 01:13:08;;;;;;;13.05;11.85;;;14.90;84.80;;;;;;5071636;28;20093;-73
2023/06/24 01:15:35;;;;;;;12.70;11.90;;;14.90;84.40;;;;;;5071227;28;20424;-73
2023/06/24 01:18:12;;;;;;;12.65;11.70;;;14.90;84.60;;;;;;5075161;28;20768;-72
2023/06/24 01:21:17;;;;;;;12.35;11.45;;;15.00;84.10;;;;;;5071200;28;20047;-72
2023/06/24 01:24:22;;;;;;;12.70;11.80;;;14.90;83.70;;;;;;5039736;28;20151;-73
2023/06/24 01:27:10;;;;;;;13.05;11.95;;;14.80;84.60;;;;;;5038885;28;20442;-72
2023/06/24 01:29:48;;;;;;;13.52;12.50;;;14.80;84.10;;;;;;5050171;28;20032;-72
2023/06/24 01:32:27;;;;;;;14.75;13.45;;;14.80;81.60;;;;;;5051972;28;20055;-72
2023/06/24 01:35:20;;;;;;;13.02;12.13;;;14.80;79.40;;;;;;5050778;28;20029;-72
2023/06/24 01:37:51;;;;;;;13.45;12.55;;;14.80;78.70;;;;;;5044062;28;20037;-73
2023/06/24 01:40:37;;;;;;;13.45;12.45;;;14.80;78.00;;;;;;5048575;28;20033;-72
2023/06/24 01:43:06;;;;;;;13.90;12.80;;;14.80;77.90;;;;;;5049723;28;20103;-72
2023/06/24 01:45:44;;;;;;;13.95;13.02;;;14.80;78.00;;;;;;5049268;28;20068;-72
2023/06/24 01:48:23;;;;;;;14.00;12.85;;;14.80;78.70;;;;;;5048622;28;20047;-72
2023/06/24 01:51:15;;;;;;;13.97;12.87;;;14.70;78.50;;;;;;5052068;28;20487;-73
2023/06/24 01:53:48;;;;;;;14.38;13.10;;;14.60;79.40;;;;;;5043439;28;20290;-73
2023/06/24 01:56:15;;;;;;;14.15;12.95;;;14.60;80.60;;;;;;5053308;28;20539;-72
2023/06/24 01:58:43;;;;;;;13.50;12.43;;;14.60;80.60;;;;;;5053896;28;20045;-73
2023/06/24 02:01:09;;;;;;;13.85;12.85;;;14.50;80.70;;;;;;5050533;28;20044;-72
2023/06/24 02:03:36;;;;;;;13.68;12.73;;;14.40;83.30;;;;;;5053209;28;20063;-73
2023/06/24 02:06:02;;;;;;;13.77;12.68;;;14.40;81.40;;;;;;5050440;28;20503;-73
2023/06/24 02:08:32;;;;;;;13.23;12.23;;;14.40;82.00;;;;;;5050253;28;20037;-73
2023/06/24 02:10:59;;;;;;;13.90;12.80;;;14.30;83.60;;;;;;5051481;28;20051;-72
2023/06/24 02:13:26;;;;;;;14.15;13.07;;;14.30;83.80;;;;;;5046753;28;20034;-73
2023/06/24 02:15:52;;;;;;;14.35;13.25;;;14.30;83.20;;;;;;5050594;28;20120;-71
2023/06/24 02:18:21;;;;;;;13.57;12.57;;;14.20;84.00;;;;;;5045293;28;20025;-72
2023/06/24 02:20:49;;;;;;;13.95;12.95;;;14.20;84.20;;;;;;5051752;28;20029;-73
2023/06/24 02:23:15;;;;;;;14.90;13.73;;;14.20;83.70;;;;;;5048297;28;20049;-72
2023/06/24 02:25:42;;;;;;;14.13;13.13;;;14.20;83.40;;;;;;5052261;28;20033;-73
2023/06/24 02:28:09;;;;;;;15.02;13.82;;;14.20;83.30;;;;;;5050704;28;20033;-72
2023/06/24 02:30:38;;;;;;;14.18;13.18;;;14.20;83.40;;;;;;5052799;28;20033;-73
2023/06/24 02:33:05;;;;;;;15.77;14.47;;;14.20;84.40;;;;;;5048644;28;20044;-73
2023/06/24 02:35:30;;;;;;;16.55;15.05;;;14.10;85.90;;;;;;5053260;28;20054;-73
2023/06/24 02:37:56;;;;;;;15.07;13.95;;;14.10;85.40;;;;;;5080830;28;20534;-73
2023/06/24 02:40:22;;;;;;;16.70;15.20;;;14.00;85.10;;;;;;5053100;28;20488;-73
2023/06/24 02:42:47;;;;;;;16.10;14.77;;;14.00;85.80;;;;;;5054003;28;20068;-73
2023/06/24 02:45:14;;;;;;;15.95;14.65;;;13.90;86.60;;;;;;5052867;28;20483;-72
2023/06/24 02:47:43;;;;;;;16.13;14.90;;;13.90;85.40;;;;;;5049318;28;20044;-73
2023/06/24 02:50:10;;;;;;;15.90;14.45;;;13.90;86.70;;;;;;5053705;28;20040;-72
2023/06/24 02:52:37;;;;;;;15.70;14.30;;;13.90;86.20;;;;;;5056692;28;20091;-72
2023/06/24 02:55:04;;;;;;;14.23;13.18;;;13.60;87.80;;;;;;5049099;28;20123;-73
2023/06/24 02:57:30;;;;;;;15.93;14.50;;;13.70;88.80;;;;;;5051050;28;20033;-73
2023/06/24 02:59:56;;;;;;;15.23;13.82;;;13.60;88.50;;;;;;5050728;28;20044;-73
2023/06/24 03:02:23;;;;;;;17.33;15.82;;;13.70;89.00;;;;;;5049007;28;20025;-72
2023/06/24 03:04:50;;;;;;;17.40;16.10;;;13.60;89.90;;;;;;5056298;28;20040;-73
2023/06/24 03:07:20;;;;;;;17.58;16.27;;;13.50;90.70;;;;;;5054907;28;20053;-73
2023/06/24 03:09:46;;;;;;;18.73;17.13;;;13.30;91.40;;;;;;5056142;28;20115;-72
2023/06/24 03:12:12;;;;;;;17.00;15.80;;;13.10;91.70;;;;;;5054274;28;20041;-72
2023/06/24 03:14:38;;;;;;;17.77;16.13;;;13.10;92.60;;;;;;5056792;28;20040;-73
2023/06/24 03:17:03;;;;;;;15.95;14.77;;;13.20;92.90;;;;;;5053375;28;20498;-73
2023/06/24 03:19:29;;;;;;;16.48;15.10;;;13.10;92.20;;;;;;5059638;28;20052;-73
2023/06/24 03:21:55;;;;;;;17.75;16.35;;;13.00;92.90;;;;;;5082362;28;20025;-73
2023/06/24 03:24:20;;;;;;;17.33;16.02;;;13.00;93.00;;;;;;5074087;28;20116;-73
2023/06/24 03:26:46;;;;;;;17.33;15.82;;;13.00;93.60;;;;;;5059237;28;20478;-73
2023/06/24 03:29:12;;;;;;;17.55;16.20;;;12.80;93.60;;;;;;5076527;28;20036;-73
2023/06/24 03:31:43;;;;;;;16.80;15.70;;;12.80;93.70;;;;;;5055850;28;20128;-73
2023/06/24 03:34:10;;;;;;;16.02;14.93;;;12.80;93.40;;;;;;5076698;28;20103;-72
2023/06/24 03:36:38;;;;;;;15.88;14.65;;;12.80;93.50;;;;;;5073058;28;20090;-72
2023/06/24 03:39:04;;;;;;;17.63;15.93;;;12.80;93.70;;;;;;5073466;28;20025;-72
2023/06/24 03:41:30;;;;;;;16.85;15.63;;;12.60;93.70;;;;;;5056973;28;20040;-72
2023/06/24 03:43:56;;;;;;;17.35;16.05;;;12.70;93.90;;;;;;5073804;28;20036;-72
2023/06/24 03:46:21;;;;;;;18.20;16.55;;;12.70;93.90;;;;;;5091031;28;20039;-72
2023/06/24 03:48:47;;;;;;;18.20;16.48;;;12.80;93.80;;;;;;5078524;28;20041;-72
2023/06/24 03:51:13;;;;;;;18.30;16.67;;;12.80;93.50;;;;;;5075924;28;20486;-72
2023/06/24 03:53:38;;;;;;;18.25;16.80;;;12.80;93.60;;;;;;5073810;28;20035;-72
2023/06/24 03:56:04;;;;;;;17.17;15.98;;;12.80;93.90;;;;;;5073330;28;20398;-73
2023/06/24 03:58:30;;;;;;;18.58;16.67;;;12.90;93.60;;;;;;5077377;28;20029;-72
2023/06/24 04:00:59;;;;;;;17.95;16.55;;;13.00;93.30;;;;;;5073129;28;20028;-72
2023/06/24 04:03:28;;;;;;;17.58;16.30;;;13.00;93.00;;;;;;5072787;28;20042;-72
2023/06/24 04:05:55;;;;;;;16.85;15.45;;;13.00;93.10;;;;;;5076815;28;20025;-73
2023/06/24 04:08:22;;;;;;;16.60;15.18;;;13.00;93.00;;;;;;5074202;28;20040;-73
2023/06/24 04:10:48;;;;;;;18.00;16.60;;;12.90;92.80;;;;;;5070968;28;20040;-72
2023/06/24 04:13:13;;;;;;;18.40;16.92;;;12.90;92.90;;;;;;5071748;28;20411;-73
2023/06/24 04:15:39;;;;;;;18.23;16.85;;;12.90;93.10;;;;;;5067947;28;20063;-73
2023/06/24 04:18:04;;;;;;;18.55;16.92;;;13.00;92.90;;;;;;5073785;28;20119;-73
2023/06/24 04:20:30;;;;;;;18.30;16.80;;;13.10;93.20;;;;;;5075101;28;20025;-73
2023/06/24 04:22:56;;;;;;;18.08;16.67;;;13.20;92.90;;;;;;5074864;28;20059;-73
2023/06/24 04:25:21;;;;;;;17.70;16.30;;;13.30;92.80;;;;;;5072251;28;20446;-73
2023/06/24 04:27:47;;;;;;;18.92;17.35;;;13.40;92.60;;;;;;5073942;28;20033;-73
2023/06/24 04:30:13;;;;;;;17.95;16.58;;;13.60;92.40;;;;;;5053698;28;20064;-72
2023/06/24 04:32:38;;;;;;;18.35;16.95;;;13.60;92.20;;;;;;5075814;28;20032;-73
2023/06/24 04:35:04;;;;;;;18.75;17.27;;;13.80;91.70;;;;;;5071671;28;20140;-72
2023/06/24 04:37:30;;;;;;;18.40;17.05;;;13.80;92.10;;;;;;5071190;28;20044;-72
2023/06/24 04:39:56;;;;;;;18.35;16.92;;;14.00;92.10;;;;;;5072873;28;20101;-72
2023/06/24 04:42:23;;;;;;;19.23;17.63;;;14.00;92.30;;;;;;5072634;28;20376;-73
2023/06/24 04:44:50;;;;;;;18.67;17.17;;;14.20;91.90;;;;;;5074227;28;20048;-73
2023/06/24 04:47:17;;;;;;;18.13;16.73;;;14.30;91.40;;;;;;5057586;28;20112;-73
2023/06/24 04:49:43;;;;;;;17.48;16.08;;;14.40;91.40;;;;;;5072630;28;20040;-73
2023/06/24 04:52:11;;;;;;;17.35;16.05;;;14.70;90.50;;;;;;5072268;28;20029;-72
2023/06/24 04:54:37;;;;;;;15.93;14.63;;;14.70;90.20;;;;;;5070726;28;20055;-72
2023/06/24 04:57:05;;;;;;;15.77;14.55;;;14.90;89.20;;;;;;5075110;28;20165;-73
2023/06/24 04:59:31;;;;;;;16.40;15.18;;;15.00;88.00;;;;;;5071220;28;20406;-72
2023/06/24 05:01:57;;;;;;;16.27;14.77;;;15.10;88.00;;;;;;5056790;28;20035;-73
2023/06/24 05:04:22;;;;;;;16.15;14.80;;;15.20;88.00;;;;;;5072367;28;20487;-72
2023/06/24 05:06:48;;;;;;;15.60;14.50;;;15.20;86.90;;;;;;5070695;28;20539;-72
2023/06/24 05:09:15;;;;;;;16.67;15.48;;;15.30;85.40;;;;;;5069088;28;20037;-72
2023/06/24 05:11:41;;;;;;;16.10;15.00;;;15.40;84.90;;;;;;5071973;28;20483;-72
2023/06/24 05:14:07;;;;;;;17.23;15.80;;;15.40;85.20;;;;;;5071282;28;20082;-73
2023/06/24 05:16:32;;;;;;;17.15;15.85;;;15.50;84.60;;;;;;5071637;28;20495;-72
2023/06/24 05:18:58;;;;;;;17.35;16.00;;;15.70;84.30;;;;;;5076965;28;20037;-73
2023/06/24 05:21:24;;;;;;;16.60;15.40;;;15.70;84.30;;;;;;5086337;28;20723;-72
2023/06/24 05:23:49;;;;;;;17.58;16.25;;;15.80;83.60;;;;;;5072041;28;20047;-72
2023/06/24 05:26:15;;;;;;;16.25;15.15;;;15.80;83.20;;;;;;5070795;28;20085;-72
2023/06/24 05:28:41;;;;;;;18.75;17.35;;;15.90;82.40;;;;;;5073493;28;20033;-73
2023/06/24 05:31:06;;;;;;;17.35;15.93;;;16.10;82.00;;;;;;5072448;28;20037;-73
2023/06/24 05:33:32;;;;;;;16.92;15.73;;;16.20;82.70;;;;;;5069838;28;20039;-73
2023/06/24 05:35:58;;;;;;;14.43;13.32;;;16.20;80.70;;;;;;5054827;28;20036;-72
2023/06/24 05:38:23;;;;;;;15.70;14.35;;;16.50;79.20;;;;;;5072685;28;20440;-72
2023/06/24 05:40:49;;;;;;;14.55;13.55;;;16.60;80.30;;;;;;5072834;28;20073;-72
2023/06/24 05:43:14;;;;;;;15.18;13.93;;;16.60;78.60;;;;;;5074742;28;20032;-72
2023/06/24 05:45:40;;;;;;;16.33;15.00;;;16.70;79.20;;;;;;5075809;28;20043;-73
2023/06/24 05:48:06;;;;;;;14.48;13.48;;;16.80;80.30;;;;;;5073785;28;20086;-72
2023/06/24 05:50:32;;;;;;;13.98;13.00;;;16.90;78.50;;;;;;5073010;28;20133;-73
2023/06/24 05:52:58;;;;;;;15.93;14.80;;;17.10;77.70;;;;;;5073814;28;20127;-72
2023/06/24 05:55:23;;;;;;;13.73;12.70;;;17.00;78.80;;;;;;5068080;28;20111;-72
2023/06/24 05:57:49;;;;;;;13.05;12.05;;;17.00;76.10;;;;;;5072994;28;20174;-72
2023/06/24 06:00:17;;;;;;;15.20;14.00;;;17.10;74.80;;;;;;5074113;28;20111;-73
2023/06/24 06:02:42;;;;;;;12.48;11.55;;;17.20;78.40;;;;;;5075429;28;20039;-73
2023/06/24 06:05:08;;;;;;;13.88;12.93;;;17.30;75.10;;;;;;5073535;28;20032;-73
2023/06/24 06:07:34;;;;;;;14.63;13.38;;;17.30;75.20;;;;;;5068959;28;20040;-71
2023/06/24 06:10:00;;;;;;;15.13;13.90;;;17.40;75.90;;;;;;5074505;28;20039;-73
2023/06/24 06:12:26;;;;;;;14.82;13.73;;;17.40;75.00;;;;;;5071274;28;20044;-73
2023/06/24 06:14:52;;;;;;;15.82;14.65;;;17.50;76.80;;;;;;5072583;28;20133;-74
2023/06/24 06:17:18;;;;;;;15.20;13.90;;;17.50;78.70;;;;;;5070079;28;20489;-73
2023/06/24 06:19:46;;;;;;;16.40;15.00;;;17.70;76.20;;;;;;5068548;28;20067;-72
2023/06/24 06:22:13;;;;;;;16.95;15.57;;;17.60;76.60;;;;;;5071413;28;20230;-72
2023/06/24 06:24:39;;;;;;;15.88;14.55;;;17.70;75.50;;;;;;5068138;28;20107;-72
2023/06/24 06:27:08;;;;;;;16.38;14.98;;;17.70;77.80;;;;;;5071464;28;20036;-73
2023/06/24 06:29:34;;;;;;;18.23;16.93;;;17.70;76.30;;;;;;5070873;28;20088;-72
2023/06/24 06:32:00;;;;;;;15.07;13.77;;;17.90;75.00;;;;;;5071439;28;20482;-72
2023/06/24 06:34:25;;;;;;;17.70;16.52;;;17.90;74.10;;;;;;5070666;28;20032;-72
2023/06/24 06:36:51;;;;;;;17.45;16.25;;;17.90;74.30;;;;;;5073157;28;20064;-72
2023/06/24 06:39:17;;;;;;;15.82;14.32;;;18.10;73.90;;;;;;5085134;28;20406;-72
2023/06/24 06:41:42;;;;;;;17.55;16.05;;;18.30;72.60;;;;;;5074044;28;20039;-72
2023/06/24 06:44:08;;;;;;;17.27;16.08;;;18.20;73.90;;;;;;5069581;28;20462;-72
2023/06/24 06:46:34;;;;;;;17.95;16.80;;;18.30;73.90;;;;;;5075456;28;20036;-72
2023/06/24 06:48:59;;;;;;;16.92;15.63;;;18.40;73.10;;;;;;5069562;28;20056;-72
2023/06/24 06:51:25;;;;;;;18.92;17.60;;;18.50;72.80;;;;;;5071805;28;20043;-72
2023/06/24 06:53:51;;;;;;;19.00;17.52;;;18.50;73.70;;;;;;5053120;28;20039;-72
2023/06/24 06:56:19;;;;;;;17.00;15.60;;;18.60;74.70;;;;;;5070009;28;20486;-72
2023/06/24 06:58:44;;;;;;;19.60;17.77;;;18.80;72.00;;;;;;5069900;28;20028;-73
2023/06/24 07:01:10;;;;;;;19.83;18.10;;;19.00;74.10;;;;;;5072745;28;20399;-73
2023/06/24 07:03:35;;;;;;;15.65;14.25;;;19.00;73.40;;;;;;5070686;28;20059;-73
2023/06/24 07:06:01;;;;;;;19.02;17.63;;;19.10;70.20;;;;;;5069301;28;20033;-73
2023/06/24 07:08:27;;;;;;;19.80;18.27;;;19.30;74.40;;;;;;5071851;28;20032;-73
2023/06/24 07:10:52;;;;;;;20.08;18.67;;;19.30;71.60;;;;;;5069896;28;20036;-72
2023/06/24 07:13:18;;;;;;;16.67;15.32;;;19.40;72.10;;;;;;5068325;28;20506;-71
2023/06/24 07:15:44;;;;;;;16.17;14.73;;;19.50;70.70;;;;;;5070644;28;20039;-74
2023/06/24 07:18:09;;;;;;;18.20;16.35;;;19.50;70.00;;;;;;5048963;28;20029;-73
2023/06/24 07:20:35;;;;;;;18.08;16.60;;;19.50;71.00;;;;;;5071618;28;20086;-73
2023/06/24 07:23:01;;;;;;;16.27;14.98;;;19.70;68.80;;;;;;5071601;28;20048;-73
2023/06/24 07:25:28;;;;;;;16.65;15.15;;;19.60;69.10;;;;;;5074683;28;20041;-73
2023/06/24 07:27:53;;;;;;;16.48;15.18;;;19.80;70.10;;;;;;5077172;28;20055;-72
2023/06/24 07:30:19;;;;;;;16.63;15.30;;;20.10;68.60;;;;;;5089556;28;20036;-73
2023/06/24 07:32:45;;;;;;;18.73;17.23;;;19.60;67.70;;;;;;5079199;28;20063;-75
2023/06/24 07:35:11;;;;;;;16.70;15.43;;;19.60;66.90;;;;;;5073233;28;20032;-74
2023/06/24 07:37:38;;;;;;;16.92;15.73;;;19.80;68.60;;;;;;5079564;28;20078;-70
2023/06/24 07:40:05;;;;;;;25.42;23.83;;;20.20;69.10;;;;;;5076429;28;20035;-70
2023/06/24 07:42:31;;;;;;;37.15;35.08;;;20.40;65.40;;;;;;5076602;28;20080;-72
2023/06/24 07:44:56;;;;;;;23.38;22.02;;;20.50;64.20;;;;;;5055544;28;20105;-72
2023/06/24 07:47:22;;;;;;;19.80;18.58;;;20.60;66.10;;;;;;5070670;28;20071;-72
2023/06/24 07:49:48;;;;;;;46.35;44.20;;;20.60;66.60;;;;;;5069210;28;20044;-72
2023/06/24 07:52:13;;;;;;;33.88;32.00;;;20.30;65.00;;;;;;5076968;28;20437;-73
2023/06/24 07:54:39;;;;;;;34.28;32.55;;;20.30;66.70;;;;;;5040007;28;20024;-72
2023/06/24 07:57:05;;;;;;;37.22;35.38;;;20.00;66.30;;;;;;5071636;28;20036;-73
2023/06/24 07:59:30;;;;;;;38.22;36.35;;;19.90;66.60;;;;;;5038061;28;20138;-71
2023/06/24 08:01:56;;;;;;;32.05;30.25;;;20.20;67.10;;;;;;5075979;28;20029;-72
2023/06/24 08:04:22;;;;;;;34.58;32.75;;;20.20;66.30;;;;;;5056733;28;20032;-71
2023/06/24 08:06:47;;;;;;;34.25;32.55;;;20.40;63.80;;;;;;5073017;28;20498;-71
2023/06/24 08:09:15;;;;;;;44.53;42.50;;;20.60;63.80;;;;;;5070983;28;20047;-76
2023/06/24 08:11:41;;;;;;;30.73;29.17;;;20.90;64.40;;;;;;5072936;28;20032;-72
2023/06/24 08:14:07;;;;;;;43.83;41.90;;;20.50;61.10;;;;;;5091214;28;20467;-75
2023/06/24 08:16:32;;;;;;;80.45;77.13;;;20.70;60.90;;;;;;5076570;28;20037;-75
2023/06/24 08:18:58;;;;;;;32.58;31.00;;;21.30;59.50;;;;;;5076407;28;20152;-75
2023/06/24 08:21:24;;;;;;;37.47;35.45;;;21.80;61.20;;;;;;5075072;28;20082;-76
2023/06/24 08:23:50;;;;;;;20.75;19.52;;;22.00;57.70;;;;;;5071608;28;20047;-76
2023/06/24 08:26:16;;;;;;;58.47;56.10;;;22.50;57.60;;;;;;5054056;28;20131;-75
2023/06/24 08:28:41;;;;;;;31.08;29.48;;;22.70;53.80;;;;;;5073996;28;20402;-71
2023/06/24 08:31:07;;;;;;;37.92;36.20;;;23.10;53.60;;;;;;5072378;28;20047;-73
2023/06/24 08:33:33;;;;;;;36.60;34.85;;;22.60;53.60;;;;;;5072847;28;20873;-73
2023/06/24 08:35:58;;;;;;;113.78;109.35;;;22.50;56.80;;;;;;5070401;28;20043;-72
2023/06/24 08:38:24;;;;;;;114.32;109.22;;;22.80;52.70;;;;;;5072155;28;20020;-73
2023/06/24 08:40:50;;;;;;;83.30;80.00;;;22.70;51.40;;;;;;5054363;28;20035;-73
2023/06/24 08:43:16;;;;;;;108.13;104.03;;;22.80;53.20;;;;;;5075367;28;20036;-72
2023/06/24 08:45:42;;;;;;;141.85;136.57;;;23.10;52.50;;;;;;5073471;28;20044;-75
2023/06/24 08:48:08;;;;;;;88.00;84.50;;;23.00;50.30;;;;;;5068905;28;20036;-74
2023/06/24 08:50:44;;;;;;;185.18;178.00;;;22.80;51.60;;;;;;5047892;28;20060;-73
2023/06/24 08:53:10;;;;;;;149.88;144.38;;;21.60;53.00;;;;;;5072940;28;20041;-73
2023/06/24 08:55:45;;;;;;;120.20;115.60;;;21.00;54.80;;;;;;5071115;28;20032;-73
2023/06/24 08:58:10;;;;;;;128.30;123.45;;;20.80;55.40;;;;;;5072252;28;20078;-73
2023/06/24 09:00:36;;;;;;;121.25;116.68;;;20.90;56.70;;;;;;5071875;28;20028;-73
2023/06/24 09:03:02;;;;;;;128.93;123.72;;;21.60;53.40;;;;;;5075425;28;20032;-73
2023/06/24 09:05:27;;;;;;;171.73;165.20;;;22.50;53.10;;;;;;5074189;28;20494;-73
2023/06/24 09:07:53;;;;;;;283.95;273.40;;;23.20;50.80;;;;;;5075925;28;20393;-74
2023/06/24 09:10:32;;;;;;;301.90;290.52;;;23.10;47.90;;;;;;5086510;28;20040;-73
2023/06/24 09:13:02;;;;;;;275.92;265.60;;;22.40;48.20;;;;;;5072206;28;20055;-73
2023/06/24 09:15:35;;;;;;;335.90;322.13;;;21.80;52.20;;;;;;5073757;28;20040;-73
2023/06/24 09:18:02;;;;;;;283.35;272.60;;;21.50;51.40;;;;;;5078291;28;20081;-73
2023/06/24 09:20:30;;;;;;;187.70;180.55;;;21.60;51.10;;;;;;5069650;28;20484;-74
2023/06/24 09:23:03;;;;;;;309.02;297.08;;;21.50;53.40;;;;;;5058452;28;20133;-73
2023/06/24 09:25:29;;;;;;;283.83;272.80;;;21.60;51.40;;;;;;5070176;28;20036;-73
2023/06/24 09:27:58;;;;;;;233.07;223.88;;;21.70;52.50;;;;;;5073149;28;20024;-73
2023/06/24 09:30:24;;;;;;;275.73;264.55;;;21.80;52.90;;;;;;5074048;28;20035;-73
2023/06/24 09:32:51;;;;;;;324.85;311.98;;;22.00;51.10;;;;;;5086253;28;20574;-73
2023/06/24 09:35:24;;;;;;;252.82;242.93;;;22.40;50.40;;;;;;5073527;28;20044;-73
2023/06/24 09:38:02;;;;;;;344.85;330.92;;;22.40;52.70;;;;;;5075788;28;20020;-73
2023/06/24 09:40:29;;;;;;;292.88;281.33;;;22.10;51.10;;;;;;5084604;28;20486;-73
2023/06/24 09:43:00;;;;;;;176.30;169.73;;;21.90;53.50;;;;;;5076113;28;20166;-73
2023/06/24 09:45:30;;;;;;;286.70;275.63;;;22.00;53.90;;;;;;5072858;28;20062;-73
2023/06/24 09:47:57;;;;;;;325.10;312.30;;;23.10;51.00;;;;;;5069510;28;20044;-73
2023/06/24 09:50:23;;;;;;;411.25;393.98;;;23.80;48.30;;;;;;5050668;28;20037;-73
2023/06/24 09:52:50;;;;;;;689.65;651.90;;;23.90;46.40;;;;;;5053660;28;20051;-74
2023/06/24 09:55:17;;;;;;;450.13;430.45;;;23.80;45.20;;;;;;5075063;28;20044;-74
2023/06/24 09:57:46;;;;;;;693.30;656.17;;;24.10;46.60;;;;;;5072692;28;20052;-73
2023/06/24 10:00:17;;;;;;;730.05;689.03;;;23.90;44.10;;;;;;5077178;28;20041;-73
2023/06/24 10:02:45;;;;;;;476.73;455.90;;;24.10;44.20;;;;;;5077715;28;20035;-73
2023/06/24 10:05:12;;;;;;;513.05;489.70;;;24.50;44.20;;;;;;5071099;28;20040;-73
2023/06/24 10:07:39;;;;;;;680.58;643.63;;;24.40;44.60;;;;;;5070065;28;20097;-73
2023/06/24 10:10:06;;;;;;;774.22;729.47;;;25.20;44.00;;;;;;5068387;28;20120;-74
2023/06/24 10:12:33;;;;;;;610.53;578.80;;;25.50;42.40;;;;;;5084936;28;20089;-76
2023/06/24 10:15:00;;;;;;;721.60;682.45;;;24.80;44.70;;;;;;5073512;28;20040;-75
2023/06/24 10:17:26;;;;;;;754.97;712.55;;;25.00;43.90;;;;;;5071532;28;20068;-73
2023/06/24 10:19:55;;;;;;;821.28;770.72;;;25.30;43.60;;;;;;5070653;28;20063;-73
2023/06/24 10:22:25;;;;;;;760.95;716.28;;;25.60;42.80;;;;;;5077529;28;20036;-73
2023/06/24 10:24:52;;;;;;;790.25;740.30;;;25.50;42.10;;;;;;5053415;28;20045;-74
2023/06/24 10:27:23;;;;;;;664.17;623.90;;;24.60;43.00;;;;;;5075811;28;20043;-75
2023/06/24 10:29:53;;;;;;;514.20;482.48;;;24.20;44.10;;;;;;5075135;28;20475;-74
2023/06/24 10:32:21;;;;;;;571.33;538.15;;;24.80;45.00;;;;;;5058718;28;20067;-75
2023/06/24 10:34:53;;;;;;;1999.90;999.90;;;25.70;40.80;;;;;;5073163;28;20052;-74
2023/06/24 10:37:26;;;;;;;655.67;616.45;;;26.10;38.50;;;;;;5068466;28;20394;-76
2023/06/24 10:39:54;;;;;;;529.08;492.80;;;25.30;43.10;;;;;;5068510;28;20031;-76
2023/06/24 10:42:34;;;;;;;651.15;610.03;;;24.60;41.80;;;;;;5069579;28;20546;-76
2023/06/24 10:44:59;;;;;;;1999.90;999.90;;;24.20;42.90;;;;;;5071226;28;20437;-74
2023/06/24 10:47:26;;;;;;;723.50;676.40;;;24.00;44.70;;;;;;5072397;28;20286;-74
2023/06/24 10:49:53;;;;;;;1999.90;999.90;;;25.10;44.60;;;;;;5072108;28;20028;-74
2023/06/24 10:52:23;;;;;;;1999.90;999.90;;;25.60;41.10;;;;;;5073475;28;20037;-74
2023/06/24 10:54:50;;;;;;;1999.90;999.90;;;25.90;38.20;;;;;;5086980;28;20062;-74
2023/06/24 10:57:20;;;;;;;1999.90;999.90;;;26.20;40.80;;;;;;5071082;28;20033;-74
2023/06/24 10:59:51;;;;;;;1999.90;999.90;;;26.30;39.20;;;;;;5071224;28;20151;-74
2023/06/24 11:02:18;;;;;;;1999.90;999.90;;;26.80;37.70;;;;;;5066604;28;20537;-74
2023/06/24 11:04:51;;;;;;;1999.90;999.90;;;27.50;34.30;;;;;;5073531;28;20047;-74
2023/06/24 11:07:31;;;;;;;1999.90;999.90;;;27.00;34.60;;;;;;5068772;28;20729;-74
2023/06/24 11:10:00;;;;;;;1999.90;999.90;;;25.10;36.70;;;;;;5065875;28;20033;-75
2023/06/24 11:12:31;;;;;;;1999.90;999.90;;;25.90;40.90;;;;;;5070532;28;20025;-76
2023/06/24 11:14:58;;;;;;;1999.90;999.90;;;26.70;38.70;;;;;;5069675;28;20130;-75
2023/06/24 11:17:25;;;;;;;1999.90;999.90;;;27.40;36.90;;;;;;5069793;28;20103;-75
2023/06/24 11:19:53;;;;;;;1999.90;999.90;;;28.30;34.80;;;;;;5067883;28;20339;-76
2023/06/24 11:22:18;;;;;;;1999.90;999.90;;;28.30;36.00;;;;;;5066450;28;20463;-76
2023/06/24 11:24:44;;;;;;;1999.90;999.90;;;27.40;33.60;;;;;;5051135;28;20058;-76
2023/06/24 11:27:09;;;;;;;1999.90;999.90;;;26.20;36.30;;;;;;5077786;28;20506;-75
2023/06/24 11:29:35;;;;;;;1999.90;999.90;;;25.30;36.40;;;;;;5089965;28;20028;-75
2023/06/24 11:32:08;;;;;;;1999.90;999.90;;;24.90;38.30;;;;;;5076001;28;20020;-75
2023/06/24 11:34:34;;;;;;;1999.90;999.90;;;25.80;39.20;;;;;;5055871;28;20046;-75
2023/06/24 11:37:12;;;;;;;1999.90;999.90;;;25.90;37.50;;;;;;5078049;28;20063;-76
2023/06/24 11:39:41;;;;;;;1999.90;999.90;;;26.80;37.00;;;;;;5073899;28;20025;-76
2023/06/24 11:42:08;;;;;;;1999.90;999.90;;;26.60;35.30;;;;;;5074663;28;20426;-76
2023/06/24 11:44:34;;;;;;;1999.90;999.90;;;27.50;33.60;;;;;;5089033;28;20346;-75
2023/06/24 11:47:07;;;;;;;1999.90;999.90;;;27.10;34.20;;;;;;5074598;28;20108;-76
2023/06/24 11:49:54;;;;;;;1999.90;999.90;;;25.80;32.00;;;;;;5067610;28;20025;-76
2023/06/24 11:52:27;;;;;;;1999.90;999.90;;;25.80;33.40;;;;;;5066383;28;20040;-72
2023/06/24 11:54:52;;;;;;;1999.90;999.90;;;27.10;33.60;;;;;;5071806;28;20101;-74
2023/06/24 11:57:18;;;;;;;1999.90;999.90;;;28.40;30.50;;;;;;5073850;28;20486;-74
2023/06/24 11:59:43;;;;;;;1999.90;999.90;;;29.10;27.60;;;;;;5067976;28;20025;-77
2023/06/24 12:02:14;;;;;;;1999.90;999.90;;;30.00;26.00;;;;;;5080794;28;20032;-74
2023/06/24 12:04:43;;;;;;;1999.90;999.90;;;30.40;29.20;;;;;;5051001;28;20025;-75
2023/06/24 12:07:09;;;;;;;1999.90;999.90;;;30.20;27.00;;;;;;5067130;28;20016;-75
2023/06/24 12:09:38;;;;;;;1999.90;999.90;;;29.70;27.80;;;;;;5070673;28;21142;-75
2023/06/24 12:12:04;;;;;;;1999.90;999.90;;;30.10;29.60;;;;;;5077390;28;20028;-75
2023/06/24 12:14:34;;;;;;;1999.90;999.90;;;29.10;28.80;;;;;;5053622;28;20557;-75
2023/06/24 12:16:59;;;;;;;;;;;30.60;26.10;;;;;;5071371;28;20021;-75
2023/06/24 12:19:25;;;;;;;1999.90;999.90;;;29.40;26.80;;;;;;5071676;28;19918;-75
2023/06/24 12:21:50;;;;;;;1999.90;999.90;;;30.00;28.10;;;;;;5053541;28;20074;-75
2023/06/24 12:24:16;;;;;;;1999.90;999.90;;;29.60;26.90;;;;;;5085522;28;20443;-75